Atuona, French Polynesia
Current Conditions -  °F | °C
As of 3:00 AM on Friday 28 Nov 2014 (Local Time) from NTAA Reporting Station
Few Clouds Few Clouds  
Wind Chill: 77°   Ceiling: Unl
Heat Index: 79°   Visibility: 6mi
Dew Point: 70°   Wind: 6mph
Humidity: 78%   Direction: 90°E
Pressure: 29.74"   Gusts: NA
Location:  9.79°S, 139.02°W
Report Text: NTAA 281200Z 09005KT 9999 FEW023 25/21 Q1007 WS R22 NOSIG
Loading
Personal Weather Stations






























Interactive Weather Map New forecast layout! Learn more

10-Day Weather Forecast

Advertisements
Track Severe Weather on mobile